Time;durP1;ratioP1;P1;durP2;ratioP2;P2;SDS_P1;SDS_P2;PMS_P1;PMS_P2;Temp;Humidity;BMP_temperature;BMP_pressure;BME280_temperature;BME280_humidity;BME280_pressure;Samples;Min_cycle;Max_cycle;Signal;HPM_P1;HPM_P2
2022/04/15 00:01:12;;;;;;;;;;;11.80;99.90;;;11.43;100.00;97750.19;5079527;28;19959;-49
2022/04/15 00:03:39;;;;;;;;;;;11.80;99.90;;;11.45;100.00;97743.09;5080854;28;20001;-49
2022/04/15 00:06:08;;;;;;;;;;;11.80;99.90;;;11.48;100.00;97742.97;5081335;28;20181;-50
2022/04/15 00:08:34;;;;;;;;;;;11.80;99.90;;;11.49;100.00;97749.13;5084069;28;19920;-52
2022/04/15 00:11:00;;;;;;;;;;;11.80;99.90;;;11.50;100.00;97743.78;5077322;28;19924;-52
2022/04/15 00:13:29;;;;;;;;;;;11.90;99.90;;;11.48;100.00;97739.47;5078910;28;19923;-52
2022/04/15 00:15:56;;;;;;;;;;;11.90;99.90;;;11.56;100.00;97759.44;5078625;28;20364;-53
2022/04/15 00:18:21;;;;;;;;;;;11.90;99.90;;;11.56;100.00;97758.56;5079761;28;19923;-51
2022/04/15 00:20:47;;;;;;;;;;;11.90;99.90;;;11.56;100.00;97767.34;5083697;28;19924;-53
2022/04/15 00:23:13;;;;;;;;;;;11.90;99.90;;;11.55;100.00;97764.75;5081819;28;19920;-48
2022/04/15 00:25:38;;;;;;;;;;;11.90;99.90;;;11.49;100.00;97760.56;5083367;28;19939;-49
2022/04/15 00:28:04;;;;;;;;;;;11.90;99.90;;;11.42;100.00;97751.97;5083630;28;20459;-48
2022/04/15 00:30:29;;;;;;;;;;;11.90;99.90;;;11.47;100.00;97770.31;5081938;28;19924;-49
2022/04/15 00:32:55;;;;;;;;;;;11.80;99.90;;;11.46;100.00;97771.22;5086134;28;19943;-50
2022/04/15 00:35:21;;;;;;;;;;;11.80;99.90;;;11.41;100.00;97762.59;5081665;28;19928;-52
2022/04/15 00:37:47;;;;;;;;;;;11.80;99.90;;;11.39;100.00;97759.16;5074994;28;19924;-50
2022/04/15 00:40:13;;;;;;;;;;;11.70;99.90;;;11.31;100.00;97756.78;5083686;28;19920;-50
2022/04/15 00:42:38;;;;;;;;;;;11.70;99.90;;;11.30;100.00;97764.75;5080899;28;19923;-51
2022/04/15 00:45:04;;;;;;;;;;;11.70;99.90;;;11.23;100.00;97756.16;5080645;28;19916;-50
2022/04/15 00:47:56;;;;;;;;;;;11.60;99.90;;;11.25;100.00;97764.88;5079110;28;19923;-49
2022/04/15 00:50:27;;;;;;;;;;;11.60;99.90;;;11.25;100.00;97768.41;5081824;28;19948;-50
2022/04/15 00:52:54;;;;;;;;;;;11.60;99.90;;;11.27;100.00;97765.72;5080235;28;19917;-48
2022/04/15 00:55:22;;;;;;;;;;;11.70;99.90;;;11.27;100.00;97766.56;5082246;28;20344;-51
2022/04/15 00:57:53;;;;;;;;;;;11.70;99.90;;;11.29;100.00;97763.88;5076829;28;19916;-49
2022/04/15 01:00:20;;;;;;;;;;;11.70;99.90;;;11.31;100.00;97764.69;5084170;28;20379;-50
2022/04/15 01:02:46;;;;;;;;;;;11.70;99.90;;;11.29;100.00;97758.63;5080462;28;19923;-48
2022/04/15 01:05:12;;;;;;;;;;;11.70;99.90;;;11.32;100.00;97769.03;5083905;28;19916;-52
2022/04/15 01:07:43;;;;;;;;;;;11.70;99.90;;;11.31;100.00;97767.34;5081458;28;19920;-52
2022/04/15 01:10:10;;;;;;;;;;;11.70;99.90;;;11.33;100.00;97769.94;5068060;28;20279;-52
2022/04/15 01:12:37;;;;;;;;;;;11.70;99.90;;;11.35;100.00;97768.09;5088091;28;19916;-53
2022/04/15 01:15:06;;;;;;;;;;;11.70;99.90;;;11.37;100.00;97767.13;5082430;28;19924;-54
2022/04/15 01:17:35;;;;;;;;;;;11.70;99.90;;;11.38;100.00;97768.00;5083025;28;20531;-53
2022/04/15 01:20:07;;;;;;;;;;;11.70;99.90;;;11.35;100.00;97765.44;5075206;28;19967;-50
2022/04/15 01:22:38;;;;;;;;;;;11.70;99.90;;;11.31;100.00;97763.84;5079329;28;19931;-51
2022/04/15 01:25:06;;;;;;;;;;;11.70;99.90;;;11.31;100.00;97763.84;5075823;28;19916;-53
2022/04/15 01:27:40;;;;;;;;;;;11.60;99.90;;;11.28;100.00;97770.94;5084148;28;19920;-52
2022/04/15 01:30:10;;;;;;;;;;;11.60;99.90;;;11.25;100.00;97778.09;5076846;28;19916;-52
2022/04/15 01:32:36;;;;;;;;;;;11.50;99.90;;;11.19;100.00;97765.97;5084232;28;19959;-52
2022/04/15 01:35:01;;;;;;;;;;;11.50;99.90;;;11.19;100.00;97776.53;5084428;28;20021;-50
2022/04/15 01:37:28;;;;;;;;;;;11.50;99.90;;;11.17;100.00;97781.00;5082843;28;20006;-52
2022/04/15 01:39:53;;;;;;;;;;;11.50;99.90;;;11.16;100.00;97781.03;5083032;28;19923;-53
2022/04/15 01:42:19;;;;;;;;;;;11.50;99.90;;;11.15;100.00;97774.91;5081176;28;19917;-51
2022/04/15 01:44:47;;;;;;;;;;;11.50;99.90;;;11.13;100.00;97782.03;5080351;28;19915;-50
2022/04/15 01:47:13;;;;;;;;;;;11.50;99.90;;;11.11;100.00;97781.22;5077463;28;20184;-52
2022/04/15 01:49:39;;;;;;;;;;;11.40;99.90;;;11.08;100.00;97778.66;5080985;28;20291;-52
2022/04/15 01:52:05;;;;;;;;;;;11.40;99.90;;;11.07;100.00;97779.56;5077544;28;19923;-49
2022/04/15 01:54:31;;;;;;;;;;;11.40;99.90;;;11.05;100.00;97784.91;5080926;28;19920;-49
2022/04/15 01:56:57;;;;;;;;;;;11.40;99.90;;;11.04;100.00;97787.59;5081758;28;19923;-49
2022/04/15 01:59:23;;;;;;;;;;;11.40;99.90;;;11.01;100.00;97778.00;5077333;28;19927;-50
2022/04/15 02:01:49;;;;;;;;;;;11.40;99.90;;;10.88;100.00;97764.34;5079928;28;19995;-51
2022/04/15 02:04:33;;;;;;;;;;;11.40;99.90;;;10.94;100.00;97772.97;5094025;22;19935;-58
2022/04/15 02:07:00;;;;;;;;;;;11.30;99.90;;;10.87;100.00;97778.47;5042711;28;20302;-57
2022/04/15 02:09:25;;;;;;;;;;;11.20;99.90;;;10.84;100.00;97778.56;5064508;28;19912;-58
2022/04/15 02:11:51;;;;;;;;;;;11.20;99.90;;;10.78;100.00;97773.44;5059120;28;19939;-58
2022/04/15 02:14:18;;;;;;;;;;;11.20;99.90;;;10.74;100.00;97778.88;5061462;28;19912;-58
2022/04/15 02:16:44;;;;;;;;;;;11.10;99.90;;;10.66;100.00;97773.88;5061910;28;19929;-58
2022/04/15 02:19:10;;;;;;;;;;;11.10;99.90;;;10.60;100.00;97768.75;5062718;28;19917;-58
2022/04/15 02:21:36;;;;;;;;;;;11.00;99.90;;;10.64;100.00;97786.22;5062319;28;19920;-58
2022/04/15 02:24:02;;;;;;;;;;;11.00;99.90;;;10.63;100.00;97784.50;5061596;28;19917;-58
2022/04/15 02:26:27;;;;;;;;;;;11.00;99.90;;;10.61;100.00;97781.91;5060057;28;19916;-59
2022/04/15 02:28:53;;;;;;;;;;;11.00;99.90;;;10.62;100.00;97780.13;5062376;28;19920;-58
2022/04/15 02:31:18;;;;;;;;;;;11.00;99.90;;;10.59;100.00;97774.97;5064875;28;19917;-58
2022/04/15 02:33:44;;;;;;;;;;;11.00;99.90;;;10.67;100.00;97792.25;5058123;28;19948;-58
2022/04/15 02:36:10;;;;;;;;;;;11.00;99.90;;;10.73;100.00;97790.34;5056004;28;19992;-58
2022/04/15 02:38:35;;;;;;;;;;;11.10;99.90;;;10.83;100.00;97786.50;5059889;28;19916;-58
2022/04/15 02:41:04;;;;;;;;;;;11.20;99.90;;;10.90;100.00;97790.69;5059765;28;19928;-58
2022/04/15 02:43:33;;;;;;;;;;;11.20;99.90;;;10.93;100.00;97789.69;5055720;28;19924;-57
2022/04/15 02:45:59;;;;;;;;;;;11.30;99.90;;;10.95;100.00;97793.19;5061859;28;19917;-59
2022/04/15 02:48:25;;;;;;;;;;;11.30;99.90;;;10.88;100.00;97781.94;5064333;28;19924;-58
2022/04/15 02:50:51;;;;;;;;;;;11.30;99.90;;;10.91;100.00;97794.19;5061303;28;19920;-58
2022/04/15 02:53:17;;;;;;;;;;;11.30;99.90;;;10.85;100.00;97788.19;5065540;28;20013;-58
2022/04/15 02:55:42;;;;;;;;;;;11.30;99.90;;;10.80;100.00;97789.22;5054804;28;20402;-58
2022/04/15 02:58:08;;;;;;;;;;;11.20;99.90;;;10.74;100.00;97787.66;5056834;28;19917;-58
2022/04/15 03:00:34;;;;;;;;;;;11.20;99.90;;;10.74;100.00;97797.34;5056072;28;20368;-59
2022/04/15 03:02:59;;;;;;;;;;;11.10;99.90;;;10.67;100.00;97788.75;5059559;28;20379;-59
2022/04/15 03:05:25;;;;;;;;;;;11.10;99.90;;;10.64;100.00;97789.72;5061788;28;19917;-58
2022/04/15 03:07:50;;;;;;;;;;;11.10;99.90;;;10.58;100.00;97778.50;5063383;28;19951;-58
2022/04/15 03:10:16;;;;;;;;;;;11.00;99.90;;;10.67;100.00;97789.63;5061593;28;20036;-59
2022/04/15 03:12:42;;;;;;;;;;;11.10;99.90;;;10.69;100.00;97785.19;5063964;28;19920;-58
2022/04/15 03:15:11;;;;;;;;;;;11.10;99.90;;;10.75;100.00;97775.31;5061517;28;20062;-58
2022/04/15 03:17:37;;;;;;;;;;;11.10;99.90;;;10.79;100.00;97777.84;5063196;28;19917;-58
2022/04/15 03:20:07;;;;;;;;;;;11.20;99.90;;;10.83;100.00;97775.97;5059899;28;19932;-59
2022/04/15 03:22:36;;;;;;;;;;;11.20;99.90;;;10.85;100.00;97782.03;5063613;28;19923;-58
2022/04/15 03:25:03;;;;;;;;;;;11.30;99.90;;;10.85;100.00;97788.19;5059950;28;19981;-59
2022/04/15 03:27:29;;;;;;;;;;;11.30;99.90;;;10.85;100.00;97787.31;5062486;28;20173;-59
2022/04/15 03:29:55;;;;;;;;;;;11.30;99.90;;;10.82;100.00;97793.56;5060373;28;20011;-59
2022/04/15 03:32:20;;;;;;;;;;;11.30;99.90;;;10.80;100.00;97787.47;5060495;28;19920;-58
2022/04/15 03:34:46;;;;;;;;;;;11.20;99.90;;;10.76;100.00;97792.88;5060748;28;19920;-59
2022/04/15 03:37:11;;;;;;;;;;;11.20;99.90;;;10.68;100.00;97793.13;5055761;28;21294;-58
2022/04/15 03:39:37;;;;;;;;;;;11.10;99.90;;;10.63;100.00;97789.78;5054495;28;19917;-58
2022/04/15 03:42:04;;;;;;;;;;;11.00;99.90;;;10.57;100.00;97780.28;5056263;28;19925;-58
2022/04/15 03:44:29;;;;;;;;;;;11.00;99.90;;;10.49;100.00;97777.84;5059050;28;20433;-59
2022/04/15 03:46:55;;;;;;;;;;;10.90;99.90;;;10.52;100.00;97783.97;5053745;28;19921;-58
2022/04/15 03:49:20;;;;;;;;;;;10.90;99.90;;;10.46;100.00;97783.25;5057035;28;19920;-58
2022/04/15 03:51:46;;;;;;;;;;;10.90;99.90;;;10.41;100.00;97786.91;5058345;28;20364;-58
2022/04/15 03:54:12;;;;;;;;;;;10.80;99.90;;;10.36;100.00;97789.69;5061449;28;20331;-58
2022/04/15 03:56:38;;;;;;;;;;;10.80;99.90;;;10.26;100.00;97785.56;5052170;28;20413;-58
2022/04/15 03:59:03;;;;;;;;;;;10.70;99.90;;;10.24;100.00;97795.31;5056833;28;19920;-58
2022/04/15 04:01:29;;;;;;;;;;;10.60;99.90;;;10.17;100.00;97785.84;5061697;28;19997;-58
2022/04/15 04:03:55;;;;;;;;;;;10.60;99.90;;;10.15;100.00;97791.16;5056782;28;19916;-58
2022/04/15 04:06:21;;;;;;;;;;;10.50;99.90;;;10.10;100.00;97790.41;5055948;28;19938;-58
2022/04/15 04:08:49;;;;;;;;;;;10.50;99.90;;;10.06;100.00;97794.91;5061994;28;20398;-58
2022/04/15 04:11:16;;;;;;;;;;;10.50;99.90;;;10.04;100.00;97799.38;5061383;28;20095;-58
2022/04/15 04:13:42;;;;;;;;;;;10.40;99.90;;;9.96;100.00;97788.19;5062345;28;19920;-58
2022/04/15 04:16:08;;;;;;;;;;;10.40;99.90;;;9.99;100.00;97805.69;5055797;28;19939;-58
2022/04/15 04:18:33;;;;;;;;;;;10.40;99.90;;;9.95;100.00;97810.16;5066467;28;20343;-58
2022/04/15 04:20:59;;;;;;;;;;;10.30;99.90;;;9.91;100.00;97813.81;5061222;28;19940;-58
2022/04/15 04:23:25;;;;;;;;;;;10.30;99.90;;;9.85;100.00;97806.06;5066952;28;19944;-58
2022/04/15 04:25:50;;;;;;;;;;;10.20;99.90;;;9.86;100.00;97810.44;5057572;28;19971;-58
2022/04/15 04:28:16;;;;;;;;;;;10.20;99.90;;;9.85;100.00;97804.31;5055522;28;20054;-58
2022/04/15 04:30:41;;;;;;;;;;;10.20;99.90;;;9.85;100.00;97811.31;5061577;28;20325;-59
2022/04/15 04:33:07;;;;;;;;;;;10.20;99.90;;;9.87;100.00;97812.16;5063362;28;19917;-58
2022/04/15 04:35:33;;;;;;;;;;;10.20;99.90;;;9.60;100.00;97779.53;5064185;28;19964;-58
2022/04/15 04:37:58;;;;;;;;;;;10.20;99.90;;;9.79;100.00;97809.72;5053588;28;20004;-58
2022/04/15 04:40:24;;;;;;;;;;;10.20;99.90;;;9.85;100.00;97821.88;5064536;28;19921;-58
2022/04/15 04:42:51;;;;;;;;;;;10.20;99.90;;;9.66;100.00;97785.50;5058786;28;20403;-58
2022/04/15 04:45:17;;;;;;;;;;;10.20;99.90;;;9.83;100.00;97821.03;5061051;28;19927;-59
2022/04/15 04:47:44;;;;;;;;;;;10.30;99.90;;;9.81;100.00;97817.59;5063441;28;19953;-59
2022/04/15 04:50:10;;;;;;;;;;;10.20;99.90;;;9.84;100.00;97828.06;5057979;28;20371;-59
2022/04/15 04:52:36;;;;;;;;;;;10.30;99.90;;;9.82;100.00;97821.97;5060369;28;19951;-58
2022/04/15 04:55:03;;;;;;;;;;;10.30;99.90;;;9.88;100.00;97830.53;5058093;28;19972;-59
2022/04/15 04:57:29;;;;;;;;;;;10.30;99.90;;;9.96;100.00;97833.00;5061344;28;19920;-59
2022/04/15 04:59:56;;;;;;;;;;;10.40;99.90;;;10.00;100.00;97829.34;5063455;28;20400;-59
2022/04/15 05:02:22;;;;;;;;;;;10.40;99.90;;;10.08;100.00;97839.69;5062032;28;20028;-59
2022/04/15 05:04:48;;;;;;;;;;;10.50;99.90;;;10.11;100.00;97822.00;5063149;28;20007;-59
2022/04/15 05:07:14;;;;;;;;;;;10.50;99.90;;;10.29;100.00;97835.56;5057237;28;20420;-60
2022/04/15 05:09:42;;;;;;;;;;;10.70;99.90;;;10.31;100.00;97821.47;5062548;28;20026;-60
2022/04/15 05:12:11;;;;;;;;;;;10.70;99.90;;;10.38;100.00;97835.34;5067182;28;19917;-60
2022/04/15 05:14:37;;;;;;;;;;;10.80;99.90;;;10.50;100.00;97848.16;5057409;28;19971;-60
2022/04/15 05:17:03;;;;;;;;;;;10.90;99.90;;;10.53;100.00;97838.44;5063774;28;19947;-60
2022/04/15 05:19:29;;;;;;;;;;;10.90;99.90;;;10.60;100.00;97845.25;5063275;28;19917;-60
2022/04/15 05:21:55;;;;;;;;;;;11.00;99.90;;;10.66;100.00;97845.94;5065611;28;19962;-60
2022/04/15 05:24:20;;;;;;;;;;;11.00;99.90;;;10.76;100.00;97864.13;5058703;28;19982;-60
2022/04/15 05:26:46;;;;;;;;;;;11.10;99.90;;;10.82;100.00;97867.44;5059009;28;19920;-60
2022/04/15 05:29:11;;;;;;;;;;;11.10;99.90;;;10.89;100.00;97857.53;5063196;28;19967;-60
2022/04/15 05:31:37;;;;;;;;;;;11.20;99.90;;;11.00;100.00;97865.13;5063484;28;20455;-60
2022/04/15 05:34:03;;;;;;;;;;;11.30;99.90;;;11.08;100.00;97863.13;5064800;28;19923;-60
2022/04/15 05:36:29;;;;;;;;;;;11.40;99.90;;;11.07;100.00;97841.16;5061008;28;19928;-59
2022/04/15 05:38:54;;;;;;;;;;;11.50;99.90;;;11.35;100.00;97879.84;5057935;28;19922;-60
2022/04/15 05:41:20;;;;;;;;;;;11.60;99.90;;;11.45;100.00;97881.28;5064647;28;19970;-60
2022/04/15 05:43:46;;;;;;;;;;;11.70;99.90;;;11.58;100.00;97879.09;5063392;28;19919;-59
2022/04/15 05:46:12;;;;;;;;;;;11.80;99.90;;;11.70;100.00;97876.97;5064725;28;19924;-60
2022/04/15 05:48:38;;;;;;;;;;;12.00;99.90;;;11.79;100.00;97882.81;5068138;28;19921;-60
2022/04/15 05:51:05;;;;;;;;;;;12.10;99.90;;;11.90;100.00;97885.13;5064596;28;21253;-60
2022/04/15 05:53:31;;;;;;;;;;;12.20;99.90;;;12.02;100.00;97889.97;5063503;28;20398;-59
2022/04/15 05:55:57;;;;;;;;;;;12.30;99.90;;;12.09;100.00;97887.09;5067951;28;19931;-59
2022/04/15 05:58:24;;;;;;;;;;;12.40;99.90;;;12.22;100.00;97893.69;5064490;28;19971;-59
2022/04/15 06:00:50;;;;;;;;;;;12.50;99.90;;;12.37;100.00;97900.22;5063016;28;19970;-59
2022/04/15 06:03:16;;;;;;;;;;;12.60;99.90;;;12.54;100.00;97891.66;5068268;28;19920;-59
2022/04/15 06:05:41;;;;;;;;;;;12.80;99.90;;;12.72;100.00;97898.03;5066158;28;19917;-59
2022/04/15 06:08:07;;;;;;;;;;;13.00;99.90;;;12.83;100.00;97898.53;5065811;28;19921;-59
2022/04/15 06:10:32;;;;;;;;;;;13.10;99.90;;;12.91;100.00;97892.91;5067893;28;19916;-59
2022/04/15 06:13:02;;;;;;;;;;;13.20;99.90;;;13.06;100.00;97894.97;5060368;28;19923;-60
2022/04/15 06:15:31;;;;;;;;;;;13.30;99.90;;;13.20;100.00;97897.06;5068818;28;20432;-59
2022/04/15 06:17:58;;;;;;;;;;;13.40;99.90;;;13.22;100.00;97907.59;5067243;28;19913;-60
2022/04/15 06:20:24;;;;;;;;;;;13.40;99.90;;;13.23;100.00;97906.69;5068096;28;19920;-59
2022/04/15 06:22:49;;;;;;;;;;;13.50;99.90;;;13.20;100.00;97902.38;5066290;28;20418;-59
2022/04/15 06:25:15;;;;;;;;;;;13.50;99.90;;;13.18;100.00;97898.94;5064718;28;19916;-59
2022/04/15 06:27:41;;;;;;;;;;;13.40;99.90;;;13.16;100.00;97900.78;5060510;28;19917;-59
2022/04/15 06:30:08;;;;;;;;;;;13.40;99.90;;;13.16;100.00;97906.94;5063476;28;20001;-59
2022/04/15 06:32:34;;;;;;;;;;;13.40;99.90;;;13.17;100.00;97894.53;5064580;28;19919;-59
2022/04/15 06:35:00;;;;;;;;;;;13.40;99.90;;;13.23;100.00;97909.34;5066926;28;19917;-59
2022/04/15 06:37:25;;;;;;;;;;;13.50;99.90;;;13.33;100.00;97913.38;5065195;28;19998;-59
2022/04/15 06:39:51;;;;;;;;;;;13.60;99.90;;;13.35;99.37;97914.16;5068588;28;19913;-59
2022/04/15 06:42:24;;;;;;;;;;;13.60;99.90;;;13.34;99.38;97915.09;5066731;28;19916;-59
2022/04/15 06:44:49;;;;;;;;;;;13.60;99.90;;;13.31;100.00;97908.13;5061802;28;19924;-59
2022/04/15 06:47:15;;;;;;;;;;;13.60;99.90;;;13.36;100.00;97902.66;5064121;28;19916;-59
2022/04/15 06:49:42;;;;;;;;;;;13.60;99.90;;;13.30;100.00;97910.84;5067464;28;20364;-59
2022/04/15 06:52:07;;;;;;;;;;;13.60;99.90;;;13.37;100.00;97915.00;5067292;28;20396;-59
2022/04/15 06:54:33;;;;;;;;;;;13.70;99.90;;;13.38;98.36;97911.41;5064979;28;20190;-59
2022/04/15 06:56:59;;;;;;;;;;;13.70;99.90;;;13.40;98.36;97917.50;5066322;28;20007;-59
2022/04/15 06:59:24;;;;;;;;;;;13.70;99.90;;;13.46;98.74;97909.31;5067041;28;19912;-59
2022/04/15 07:01:50;;;;;;;;;;;13.80;99.90;;;13.54;98.62;97911.66;5063845;28;19935;-59
2022/04/15 07:04:16;;;;;;;;;;;13.90;99.90;;;13.57;97.90;97908.88;5065320;28;20424;-59
2022/04/15 07:06:42;;;;;;;;;;;13.90;99.90;;;13.68;96.82;97908.44;5067794;28;19920;-59
2022/04/15 07:09:07;;;;;;;;;;;14.00;99.90;;;13.74;95.83;97913.47;5063610;28;19924;-59
2022/04/15 07:11:33;;;;;;;;;;;14.10;99.90;;;13.78;95.38;97915.06;5068295;28;20039;-59
2022/04/15 07:13:59;;;;;;;;;;;14.10;99.90;;;13.92;94.57;97918.00;5067798;28;19916;-59
2022/04/15 07:16:24;;;;;;;;;;;14.20;99.90;;;14.02;93.01;97917.63;5059592;28;19954;-59
2022/04/15 07:18:52;;;;;;;;;;;14.30;99.90;;;14.11;93.01;97922.53;5065563;28;19921;-59
2022/04/15 07:21:18;;;;;;;;;;;14.40;99.90;;;14.15;90.34;97918.81;5058879;28;20346;-59
2022/04/15 07:23:45;;;;;;;;;;;14.50;99.90;;;14.18;91.08;97920.50;5056276;28;20398;-60
2022/04/15 07:26:10;;;;;;;;;;;14.50;99.90;;;14.09;89.33;97913.78;5055049;28;20446;-59
2022/04/15 07:28:36;;;;;;;;;;;14.50;99.90;;;14.16;88.77;97924.97;5057397;28;19913;-59
2022/04/15 07:31:01;;;;;;;;;;;14.50;99.90;;;14.24;88.01;97925.53;5056549;28;19917;-60
2022/04/15 07:33:27;;;;;;;;;;;14.60;99.90;;;14.24;86.54;97929.03;5063974;28;20334;-59
2022/04/15 07:35:53;;;;;;;;;;;14.60;99.90;;;14.30;87.47;97928.78;5066806;28;19922;-59
2022/04/15 07:38:18;;;;;;;;;;;14.60;99.90;;;14.39;87.30;97922.22;5067042;28;19928;-59
2022/04/15 07:40:44;;;;;;;;;;;14.70;99.90;;;14.55;86.92;97929.47;5063205;28;19913;-59
2022/04/15 07:43:10;;;;;;;;;;;14.80;99.90;;;14.59;85.70;97925.78;5056294;28;20130;-60
2022/04/15 07:45:35;;;;;;;;;;;14.90;99.90;;;14.46;83.81;97912.16;5058684;28;20383;-60
2022/04/15 07:48:01;;;;;;;;;;;15.00;99.90;;;14.72;85.01;97928.78;5054715;28;20380;-59
2022/04/15 07:50:27;;;;;;;;;;;15.00;99.90;;;14.86;85.75;97932.50;5055964;28;19958;-60
2022/04/15 07:52:57;;;;;;;;;;;15.10;99.90;;;15.05;83.29;97926.34;5062930;28;19991;-60
2022/04/15 07:55:23;;;;;;;;;;;15.30;99.90;;;15.19;81.64;97926.56;5058922;28;19928;-59
2022/04/15 07:57:49;;;;;;;;;;;15.50;99.90;;;15.27;79.03;97939.47;5066984;28;19912;-60
2022/04/15 08:00:15;;;;;;;;;;;15.60;99.90;;;15.30;78.62;97928.72;5063535;28;20448;-60
2022/04/15 08:02:41;;;;;;;;;;;15.70;99.90;;;15.37;79.60;97919.50;5060441;28;19923;-60
2022/04/15 08:05:07;;;;;;;;;;;15.70;99.90;;;15.51;79.41;97923.31;5064406;28;20015;-60
2022/04/15 08:07:32;;;;;;;;;;;15.80;99.90;;;15.64;79.50;97927.06;5068057;28;20011;-60
2022/04/15 08:09:58;;;;;;;;;;;15.90;99.90;;;15.75;78.36;97927.44;5059880;22;20403;-57
2022/04/15 08:12:24;;;;;;;;;;;16.00;99.90;;;15.66;77.08;97934.03;5038649;28;19971;-57
2022/04/15 08:14:49;;;;;;;;;;;16.00;99.90;;;15.67;78.02;97932.25;5044071;28;20007;-57
2022/04/15 08:17:15;;;;;;;;;;;16.00;99.90;;;15.63;78.26;97934.19;5042595;28;20336;-57
2022/04/15 08:19:41;;;;;;;;;;;16.00;99.90;;;15.76;78.26;97936.28;5034111;28;19920;-57
2022/04/15 08:22:09;;;;;;;;;;;16.10;99.90;;;15.91;77.62;97934.66;5025305;28;19979;-57
2022/04/15 08:24:42;;;;;;;;;;;16.20;99.90;;;15.93;76.43;97920.34;5028781;28;19913;-57
2022/04/15 08:27:09;;;;;;;;;;;16.30;99.90;;;16.08;74.55;97937.34;5030929;28;19920;-57
2022/04/15 08:29:38;;;;;;;;;;;16.30;99.90;;;16.09;74.08;97941.72;5026870;28;19953;-57
2022/04/15 08:32:08;;;;;;;;;;;16.40;99.90;;;16.21;72.80;97943.75;5014702;28;19913;-57
2022/04/15 08:34:37;;;;;;;;;;;16.50;99.90;;;16.22;72.76;97937.50;5016152;28;20392;-57
2022/04/15 08:37:03;;;;;;;;;;;16.60;99.90;;;16.33;70.27;97941.38;5022305;28;19917;-57
2022/04/15 08:39:28;;;;;;;;;;;16.60;99.90;;;16.43;70.63;97934.66;5017804;28;19972;-58
2022/04/15 08:41:55;;;;;;;;;;;16.70;99.90;;;16.36;68.72;97936.78;5028172;28;19913;-57
2022/04/15 08:44:22;;;;;;;;;;;16.70;99.90;;;16.27;67.75;97933.72;5030283;28;19945;-57
2022/04/15 08:46:48;;;;;;;;;;;16.60;99.90;;;16.26;68.25;97943.53;5030195;28;19913;-58
2022/04/15 08:49:16;;;;;;;;;;;16.60;99.90;;;16.35;69.44;97948.38;5025074;28;19948;-57
2022/04/15 08:51:42;;;;;;;;;;;16.60;99.90;;;16.33;68.79;97946.72;5029140;28;19928;-60
2022/04/15 08:54:09;;;;;;;;;;;16.60;99.90;;;16.23;69.89;97949.84;5028128;28;19913;-60
2022/04/15 08:56:34;;;;;;;;;;;16.50;99.90;;;16.30;70.86;97947.75;5029847;28;19921;-60
2022/04/15 08:59:00;;;;;;;;;;;16.50;99.90;;;16.55;71.11;97952.66;5026296;28;19924;-60
2022/04/15 09:01:26;;;;;;;;;;;16.80;99.90;;;16.73;66.39;97953.50;5030181;28;20672;-60
2022/04/15 09:03:51;;;;;;;;;;;17.10;99.90;;;17.01;63.87;97949.34;5023647;28;19913;-60
2022/04/15 09:06:18;;;;;;;;;;;17.20;99.90;;;17.15;61.82;97949.47;5025300;28;20293;-60
2022/04/15 09:09:00;;;;;;;;;;;17.40;99.90;;;17.28;61.69;97957.69;5025477;28;19917;-60
2022/04/15 09:11:34;;;;;;;;;;;17.50;99.90;;;17.27;60.99;97952.44;5025277;28;19918;-60
2022/04/15 09:14:02;;;;;;;;;;;17.60;99.90;;;17.21;60.87;97958.97;5025973;28;19959;-61
2022/04/15 09:16:30;;;;;;;;;;;17.60;99.90;;;17.40;62.39;97955.25;5026435;28;19960;-61
2022/04/15 09:18:56;;;;;;;;;;;17.70;99.90;;;17.54;61.70;97958.88;5030306;28;20431;-61
2022/04/15 09:21:24;;;;;;;;;;;17.80;99.90;;;17.64;58.96;97961.91;5030836;28;19928;-61
2022/04/15 09:23:52;;;;;;;;;;;17.90;99.90;;;17.63;58.26;97957.50;5027860;28;19971;-61
2022/04/15 09:26:19;;;;;;;;;;;18.00;99.90;;;17.54;55.89;97956.19;5024714;28;19960;-60
2022/04/15 09:28:47;;;;;;;;;;;17.90;99.90;;;17.63;58.50;97953.97;5024914;28;19913;-60
2022/04/15 09:31:14;;;;;;;;;;;18.00;99.90;;;17.80;59.40;97961.88;5028210;28;20373;-60
2022/04/15 09:33:59;;;;;;;;;;;18.10;99.90;;;17.99;56.63;97961.69;5023877;28;19913;-59
2022/04/15 09:36:35;;;;;;;;;;;18.20;99.90;;;18.13;55.04;97968.91;5026680;28;19917;-60
2022/04/15 09:39:11;;;;;;;;;;;18.40;99.90;;;17.96;55.50;97961.88;5030576;28;19921;-61
2022/04/15 09:41:38;;;;;;;;;;;18.40;99.90;;;17.71;55.90;97959.72;5030434;28;19948;-61
2022/04/15 09:44:04;;;;;;;;;;;18.20;99.90;;;17.78;56.54;97955.75;5028899;28;20004;-61
2022/04/15 09:46:31;;;;;;;;;;;18.10;99.90;;;17.87;56.84;97941.06;5025293;28;19924;-61
2022/04/15 09:49:10;;;;;;;;;;;18.20;99.90;;;18.08;54.43;97955.81;5029319;28;20016;-61
2022/04/15 09:51:51;;;;;;;;;;;18.40;99.90;;;18.10;54.72;97961.91;5027416;28;19976;-61
2022/04/15 09:54:25;;;;;;;;;;;18.30;99.90;;;18.18;55.33;97964.16;5024755;28;19987;-60
2022/04/15 09:56:58;;;;;;;;;;;18.50;99.90;;;18.04;52.94;97956.09;5025720;28;20302;-61
2022/04/15 09:59:25;;;;;;;;;;;18.50;98.50;;;18.02;52.78;97966.88;5028433;28;20395;-61
2022/04/15 10:01:56;;;;;;;;;;;18.40;98.30;;;18.01;52.11;97964.28;5020990;28;19917;-62
2022/04/15 10:04:25;;;;;;;;;;;18.40;98.20;;;18.04;52.31;97961.44;5026814;28;19913;-61
2022/04/15 10:06:52;;;;;;;;;;;18.40;98.20;;;18.11;53.90;97952.13;5024370;28;19928;-61
2022/04/15 10:09:17;;;;;;;;;;;18.40;98.90;;;18.16;55.52;97946.50;5033269;28;20007;-62
2022/04/15 10:11:47;;;;;;;;;;;18.50;99.20;;;18.39;54.01;97953.16;5024698;28;19921;-61
2022/04/15 10:14:14;;;;;;;;;;;18.70;99.00;;;18.64;52.43;97961.38;5023352;28;19909;-61
2022/04/15 10:16:42;;;;;;;;;;;19.00;98.10;;;18.86;52.81;97955.63;5028420;28;19921;-61
2022/04/15 10:19:08;;;;;;;;;;;19.30;98.40;;;18.97;52.73;97954.09;5029373;28;20012;-61
2022/04/15 10:21:37;;;;;;;;;;;19.40;97.90;;;18.79;54.02;97956.94;5023049;28;20382;-62
2022/04/15 10:24:03;;;;;;;;;;;19.30;98.30;;;18.68;53.99;97956.72;5025073;28;19920;-62
2022/04/15 10:26:52;;;;;;;;;;;19.10;98.20;;;18.57;55.02;97956.53;5031430;28;20373;-61
2022/04/15 10:29:17;;;;;;;;;;;19.00;98.60;;;18.33;55.11;97949.03;5027603;28;19913;-59
2022/04/15 10:31:44;;;;;;;;;;;18.80;98.80;;;18.06;55.26;97947.03;5025889;28;19958;-62
2022/04/15 10:34:19;;;;;;;;;;;18.60;98.40;;;18.22;55.96;97952.34;5019172;28;19913;-62
2022/04/15 10:36:52;;;;;;;;;;;18.60;98.90;;;18.43;54.20;97944.88;5022444;28;19987;-62
2022/04/15 10:39:19;;;;;;;;;;;18.80;98.50;;;18.46;51.15;97944.66;5019763;28;19921;-62
2022/04/15 10:41:45;;;;;;;;;;;18.90;96.40;;;18.79;52.19;97948.03;5027578;28;19928;-62
2022/04/15 10:44:11;;;;;;;;;;;19.20;97.20;;;19.22;49.63;97953.41;5028623;28;20423;-62
2022/04/15 10:46:40;;;;;;;;;;;19.50;96.10;;;19.34;49.13;97944.59;5029001;28;20378;-61
2022/04/15 10:49:23;;;;;;;;;;;19.70;95.30;;;19.26;48.60;97949.59;5026793;28;20361;-62
2022/04/15 10:51:58;;;;;;;;;;;19.70;94.20;;;19.10;48.97;97948.88;5024458;28;20290;-62
2022/04/15 10:54:36;;;;;;;;;;;19.60;94.70;;;19.05;50.27;97952.66;5021400;28;20007;-62
2022/04/15 10:57:02;;;;;;;;;;;19.50;95.10;;;19.00;48.79;97949.41;5023518;28;20270;-61
2022/04/15 11:02:20;;;;;;;;;;;19.40;95.00;;;18.80;49.76;97955.13;5019725;28;20390;-62
2022/04/15 11:04:50;;;;;;;;;;;19.20;95.00;;;18.54;48.24;97954.03;5022735;28;19913;-62
2022/04/15 11:07:24;;;;;;;;;;;19.00;93.30;;;18.47;48.49;97959.75;5022048;28;19918;-63
2022/04/15 11:09:49;;;;;;;;;;;19.00;93.10;;;18.84;49.20;97952.22;5019756;28;19921;-63
2022/04/15 11:12:28;;;;;;;;;;;19.20;94.10;;;19.01;47.46;97955.63;5017090;28;19940;-62
2022/04/15 11:14:54;;;;;;;;;;;19.40;92.70;;;19.14;48.54;97953.06;5021687;28;19939;-62